Time;durP1;ratioP1;P1;durP2;ratioP2;P2;SDS_P1;SDS_P2;PMS_P1;PMS_P2;Temp;Humidity;BMP_temperature;BMP_pressure;BME280_temperature;BME280_humidity;BME280_pressure;Samples;Min_cycle;Max_cycle;Signal;HPM_P1;HPM_P2
2023/01/18 00:01:11;;;;;;;0.88;0.88;;;;;;;-1.73;94.38;98996.84;5091353;28;20051;-84
2023/01/18 00:03:39;;;;;;;0.90;0.90;;;;;;;-1.73;94.44;98995.03;5091137;28;20048;-84
2023/01/18 00:06:08;;;;;;;0.80;0.80;;;;;;;-1.73;94.50;98987.09;5091221;28;20044;-84
2023/01/18 00:08:37;;;;;;;0.93;0.93;;;;;;;-1.73;94.33;99008.25;5089502;28;20044;-83
2023/01/18 00:11:14;;;;;;;0.90;0.90;;;;;;;-1.70;94.41;99017.69;5091071;28;20044;-84
2023/01/18 00:13:42;;;;;;;1.00;1.00;;;;;;;-1.70;94.64;99025.63;5089672;28;20048;-84
2023/01/18 00:16:17;;;;;;;1.00;1.00;;;;;;;-1.70;94.59;99010.56;5091161;28;20488;-85
2023/01/18 00:18:52;;;;;;;0.90;0.90;;;;;;;-1.72;94.67;99023.16;5091004;28;20074;-83
2023/01/18 00:21:19;;;;;;;0.90;0.90;;;;;;;-1.70;95.04;99012.38;5091113;28;20044;-84
2023/01/18 00:23:46;;;;;;;0.90;0.90;;;;;;;-1.69;94.78;99029.94;5090493;28;20605;-83
2023/01/18 00:26:13;;;;;;;0.82;0.82;;;;;;;-1.70;94.81;99028.25;5090961;28;20052;-83
2023/01/18 00:28:41;;;;;;;0.80;0.80;;;;;;;-1.70;95.03;99012.38;5090508;28;20040;-83
2023/01/18 00:31:14;;;;;;;0.90;0.90;;;;;;;-1.68;95.08;99007.75;5089731;28;20052;-83
2023/01/18 00:33:42;;;;;;;0.90;0.90;;;;;;;-1.70;95.02;99030.91;5090346;28;20052;-82
2023/01/18 00:36:10;;;;;;;0.90;0.90;;;;;;;-1.68;95.11;99011.22;5090717;28;20113;-85
2023/01/18 00:38:37;;;;;;;0.80;0.80;;;;;;;-1.69;95.05;99019.34;5089373;28;20052;-84
2023/01/18 00:41:04;;;;;;;0.90;0.90;;;;;;;-1.70;95.06;99007.09;5090714;28;20048;-84
2023/01/18 00:43:40;;;;;;;0.90;0.90;;;;;;;-1.70;95.33;98986.75;5106009;28;20056;-83
2023/01/18 00:46:09;;;;;;;0.90;0.90;;;;;;;-1.70;95.39;98991.22;5090615;28;20044;-84
2023/01/18 00:48:38;;;;;;;0.88;0.88;;;;;;;-1.70;95.29;98988.56;5090576;28;20503;-83
2023/01/18 00:51:07;;;;;;;0.90;0.90;;;;;;;-1.67;95.67;99009.41;5090502;28;20130;-84
2023/01/18 00:53:34;;;;;;;0.93;0.93;;;;;;;-1.65;95.41;99010.06;5088929;28;20040;-84
2023/01/18 00:56:01;;;;;;;1.00;1.00;;;;;;;-1.66;95.61;99011.06;5090207;28;20047;-84
2023/01/18 00:58:28;;;;;;;0.90;0.90;;;;;;;-1.67;95.41;99012.03;5090505;28;20144;-84
2023/01/18 01:00:55;;;;;;;0.88;0.88;;;;;;;-1.66;95.65;99001.31;5090630;28;20523;-84
2023/01/18 01:03:22;;;;;;;0.95;0.95;;;;;;;-1.64;95.75;99009.09;5090535;28;20139;-84
2023/01/18 01:08:34;;;;;;;0.80;0.80;;;;;;;-1.64;95.71;98967.56;5093156;28;20060;-85
2023/01/18 01:11:11;;;;;;;0.70;0.70;;;;;;;-1.64;95.63;98975.50;5099022;28;20044;-86
2023/01/18 01:27:26;;;;;;;0.90;0.90;;;;;;;-1.63;94.99;98968.41;5070361;28;20127;-84
2023/01/18 01:29:53;;;;;;;0.90;0.90;;;;;;;-1.64;94.95;98948.22;5069774;28;20530;-83
2023/01/18 01:32:20;;;;;;;1.02;1.02;;;;;;;-1.64;95.19;98975.50;5070265;28;20139;-84
2023/01/18 01:34:47;;;;;;;0.73;0.73;;;;;;;-1.65;95.21;98976.50;5070432;28;20072;-82
2023/01/18 01:37:14;;;;;;;0.90;0.90;;;;;;;-1.62;95.08;98964.75;5069355;28;20049;-83
2023/01/18 01:39:41;;;;;;;0.68;0.68;;;;;;;-1.65;95.07;98973.03;5070000;28;20048;-82
2023/01/18 01:42:10;;;;;;;0.82;0.82;;;;;;;-1.62;95.22;98985.91;5070278;28;20044;-82
2023/01/18 01:44:39;;;;;;;0.77;0.77;;;;;;;-1.61;95.22;98980.47;5069878;28;20048;-84
2023/01/18 01:47:30;;;;;;;0.90;0.90;;;;;;;-1.60;95.11;98981.28;5068656;28;20048;-84
2023/01/18 01:50:01;;;;;;;0.88;0.88;;;;;;;-1.62;95.27;98970.88;5051900;28;20044;-83
2023/01/18 01:52:32;;;;;;;0.70;0.70;;;;;;;-1.65;95.42;98971.19;5076810;28;20135;-84
2023/01/18 01:55:22;;;;;;;0.80;0.80;;;;;;;-1.63;95.37;98976.34;5087890;28;20082;-85
2023/01/18 01:58:11;;;;;;;0.80;0.80;;;;;;;-1.62;95.48;98977.97;5081026;28;20432;-85
2023/01/18 02:00:38;;;;;;;0.90;0.90;;;;;;;-1.65;95.48;98973.03;5093957;28;20048;-84
2023/01/18 02:03:08;;;;;;;0.80;0.80;;;;;;;-1.64;95.22;98978.16;5079067;28;20056;-84
2023/01/18 02:06:07;;;;;;;0.80;0.80;;;;;;;-1.65;95.43;98957.13;5082277;28;20143;-86
2023/01/18 02:08:34;;;;;;;0.70;0.70;;;;;;;-1.70;95.48;98965.56;5088252;28;20068;-86
2023/01/18 02:11:03;;;;;;;0.82;0.82;;;;;;;-1.70;95.67;98978.00;5081096;28;20044;-84
2023/01/18 02:13:31;;;;;;;0.90;0.90;;;;;;;-1.71;95.73;98966.59;5075795;28;20499;-84
2023/01/18 02:16:36;;;;;;;0.90;0.90;;;;;;;-1.68;95.97;98968.88;5074047;28;20142;-84
2023/01/18 02:19:23;;;;;;;1.10;1.10;;;;;;;-1.70;95.85;98967.41;5007841;28;20141;-83
2023/01/18 02:22:02;;;;;;;0.80;0.80;;;;;;;-1.70;95.99;98991.22;5010851;28;20081;-83
2023/01/18 02:25:09;;;;;;;0.80;0.80;;;;;;;-1.71;96.05;98971.88;4997451;28;20089;-84
2023/01/18 02:27:44;;;;;;;0.80;0.80;;;;;;;-1.70;96.23;98975.34;4997232;28;20088;-85
2023/01/18 02:30:25;;;;;;;0.90;0.90;;;;;;;-1.71;96.11;98987.75;4996254;28;20117;-85
2023/01/18 02:33:09;;;;;;;0.70;0.70;;;;;;;-1.73;95.93;98979.16;4990919;28;20054;-84
2023/01/18 02:35:46;;;;;;;0.90;0.90;;;;;;;-1.74;95.98;98977.50;4986033;28;20055;-83
2023/01/18 02:38:25;;;;;;;0.90;0.90;;;;;;;-1.76;95.99;98980.31;4994294;28;20543;-84
2023/01/18 02:41:15;;;;;;;0.90;0.90;;;;;;;-1.73;95.98;98949.22;4994410;28;20054;-84
2023/01/18 02:46:32;;;;;;;0.90;0.90;;;;;;;-1.75;95.86;98979.34;4996703;28;20071;-84
2023/01/18 02:49:17;;;;;;;0.88;0.88;;;;;;;-1.78;95.60;98934.66;4994940;28;20058;-84
2023/01/18 02:51:44;;;;;;;0.80;0.80;;;;;;;-1.83;95.49;98960.78;4993972;28;20057;-84
2023/01/18 02:54:11;;;;;;;0.85;0.85;;;;;;;-1.80;95.31;98972.84;5089845;28;20666;-84
2023/01/18 02:56:46;;;;;;;0.80;0.80;;;;;;;-1.80;95.35;98968.41;5091265;28;20578;-83
2023/01/18 02:59:21;;;;;;;0.80;0.80;;;;;;;-1.79;95.48;98996.53;5074862;28;20055;-84
2023/01/18 03:01:54;;;;;;;0.90;0.90;;;;;;;-1.78;95.43;98992.88;5085735;28;20071;-86
2023/01/18 03:04:53;;;;;;;0.90;0.90;;;;;;;-1.73;95.24;99002.13;5081656;28;20052;-85
2023/01/18 03:07:30;;;;;;;0.80;0.80;;;;;;;-1.77;94.91;98999.84;5074215;28;20054;-84
2023/01/18 03:09:59;;;;;;;1.00;1.00;;;;;;;-1.79;94.56;98993.88;5080261;28;20054;-85
2023/01/18 03:12:47;;;;;;;0.80;0.80;;;;;;;-1.78;94.54;99005.28;5081963;28;20068;-85
2023/01/18 03:15:17;;;;;;;1.00;1.00;;;;;;;-1.79;94.15;98996.53;5070644;28;20052;-83
2023/01/18 03:17:56;;;;;;;1.00;1.00;;;;;;;-1.81;93.96;99003.78;5072434;28;20049;-82
2023/01/18 03:20:29;;;;;;;0.90;0.90;;;;;;;-1.79;94.04;99015.03;5070845;28;20151;-87
2023/01/18 03:25:48;;;;;;;0.85;0.85;;;;;;;-1.81;93.80;99011.72;5080998;28;20071;-86
2023/01/18 03:34:05;;;;;;;0.90;0.90;;;;;;;-1.84;93.31;99027.94;5077564;28;20094;-84
2023/01/18 03:36:35;;;;;;;0.90;0.90;;;;;;;-1.84;93.22;99020.00;5107716;28;20507;-87
2023/01/18 03:39:05;;;;;;;0.90;0.90;;;;;;;-1.84;93.13;99016.53;5091795;28;20147;-87
2023/01/18 03:41:35;;;;;;;0.90;0.90;;;;;;;-1.84;93.16;99020.00;5091151;28;20592;-86
2023/01/18 03:44:06;;;;;;;0.90;0.90;;;;;;;-1.79;93.42;99019.50;5090732;28;20067;-84
2023/01/18 03:46:34;;;;;;;0.68;0.68;;;;;;;-1.79;93.14;99017.69;5086976;28;20083;-84
2023/01/18 03:49:01;;;;;;;0.70;0.70;;;;;;;-1.76;92.99;99038.50;5073154;28;20052;-85
2023/01/18 03:51:53;;;;;;;0.90;0.90;;;;;;;-1.72;92.69;99046.13;5089265;28;20114;-85
2023/01/18 03:54:28;;;;;;;0.73;0.73;;;;;;;-1.77;92.66;99039.53;5070720;28;20053;-87
2023/01/18 03:57:10;;;;;;;0.90;0.90;;;;;;;-1.74;92.55;99043.66;5055255;28;20499;-84
2023/01/18 03:59:38;;;;;;;0.75;0.75;;;;;;;-1.80;92.31;99034.56;5072210;28;20044;-85
2023/01/18 04:02:06;;;;;;;0.90;0.90;;;;;;;-1.75;92.33;99044.63;5076477;28;20424;-86
2023/01/18 04:04:34;;;;;;;0.80;0.80;;;;;;;-1.75;92.10;99045.47;5085658;28;20052;-86
2023/01/18 04:07:01;;;;;;;0.90;0.90;;;;;;;-1.75;92.10;99037.53;5086592;28;20048;-87
2023/01/18 04:09:28;;;;;;;0.73;0.73;;;;;;;-1.74;91.80;99027.78;5092133;28;20048;-86
2023/01/18 04:11:55;;;;;;;1.00;1.00;;;;;;;-1.76;91.81;99033.22;5090436;28;20070;-85
2023/01/18 04:14:22;;;;;;;1.00;1.00;;;;;;;-1.76;91.75;99035.88;5093501;28;20063;-90
2023/01/18 04:16:49;;;;;;;1.00;1.00;;;;;;;-1.72;91.68;99046.97;5087834;28;20579;-84
2023/01/18 04:19:16;;;;;;;0.90;0.90;;;;;;;-1.73;91.49;99044.47;5081009;28;20048;-87
2023/01/18 04:21:43;;;;;;;0.90;0.90;;;;;;;-1.75;91.41;99052.56;5077503;28;20048;-85
2023/01/18 04:24:10;;;;;;;1.00;1.00;;;;;;;-1.78;91.44;99053.72;5081882;28;20407;-90
2023/01/18 04:26:38;;;;;;;0.90;0.90;;;;;;;-1.73;91.63;99065.66;4743585;28;9999922;-90
2023/01/18 04:29:05;;;;;;;0.80;0.80;;;;;;;-1.73;91.63;99055.06;5086360;28;20506;-88
2023/01/18 04:31:32;;;;;;;0.80;0.80;;;;;;;-1.72;91.68;99062.00;5081470;28;20521;-91
2023/01/18 04:33:59;;;;;;;0.90;0.90;;;;;;;-1.71;91.35;99068.97;5080922;28;20105;-90
2023/01/18 04:36:27;;;;;;;0.95;0.95;;;;;;;-1.73;91.48;99070.94;5083312;28;20090;-90
2023/01/18 04:38:55;;;;;;;1.00;1.00;;;;;;;-1.70;91.40;99081.19;5086298;28;20789;-87
2023/01/18 04:41:30;;;;;;;0.90;0.90;;;;;;;-1.71;91.63;99080.38;5056520;28;20057;-89
2023/01/18 04:43:59;;;;;;;0.90;0.90;;;;;;;-1.66;91.58;99066.66;5079571;28;20784;-89
2023/01/18 04:46:27;;;;;;;1.00;1.00;;;;;;;-1.70;91.20;99057.38;5078353;28;20036;-89
2023/01/18 04:48:54;;;;;;;0.93;0.93;;;;;;;-1.75;91.12;99055.22;5086636;28;20056;-89
2023/01/18 04:51:22;;;;;;;1.00;1.00;;;;;;;-1.75;91.32;99058.72;5054246;28;20044;-87
2023/01/18 04:53:50;;;;;;;0.80;0.80;;;;;;;-1.72;91.44;99056.69;5085346;28;20851;-90
2023/01/18 04:56:17;;;;;;;0.90;0.90;;;;;;;-1.78;91.03;99055.53;5091277;28;20048;-87
2023/01/18 04:58:46;;;;;;;0.90;0.90;;;;;;;-1.79;91.30;99061.84;5063893;28;20057;-86
2023/01/18 05:01:15;;;;;;;0.80;0.80;;;;;;;-1.78;91.42;99072.25;5077673;28;20041;-88
2023/01/18 05:03:42;;;;;;;1.10;1.10;;;;;;;-1.81;91.61;99069.09;5081796;28;20120;-84
2023/01/18 05:06:11;;;;;;;0.80;0.80;;;;;;;-1.79;91.31;99067.97;5089396;28;20048;-84
2023/01/18 05:08:41;;;;;;;0.90;0.90;;;;;;;-1.81;91.41;99071.75;5088334;28;20051;-83
2023/01/18 05:11:17;;;;;;;0.80;0.80;;;;;;;-1.76;91.52;99094.09;5069847;28;20049;-84
2023/01/18 05:13:44;;;;;;;0.75;0.75;;;;;;;-1.78;91.40;99093.41;5070542;28;20101;-85
2023/01/18 05:16:14;;;;;;;1.00;1.00;;;;;;;-1.80;91.39;99090.13;5070620;28;20053;-86
2023/01/18 05:18:42;;;;;;;0.80;0.80;;;;;;;-1.74;91.11;99088.63;5070085;28;20072;-85
2023/01/18 05:21:09;;;;;;;0.90;0.90;;;;;;;-1.73;90.81;99092.09;5070334;28;20056;-85
2023/01/18 05:23:37;;;;;;;0.80;0.80;;;;;;;-1.76;91.00;99086.16;5069682;28;20052;-84
2023/01/18 05:26:13;;;;;;;0.90;0.90;;;;;;;-1.73;90.76;99094.75;5069748;28;20533;-84
2023/01/18 05:28:41;;;;;;;0.90;0.90;;;;;;;-1.73;90.92;99103.50;5068239;28;20053;-84
2023/01/18 05:31:08;;;;;;;0.90;0.90;;;;;;;-1.73;90.79;99098.22;5068242;28;20143;-84
2023/01/18 05:33:35;;;;;;;0.80;0.80;;;;;;;-1.80;91.02;99094.56;5069528;28;20533;-82
2023/01/18 05:36:03;;;;;;;0.90;0.90;;;;;;;-1.74;90.86;99086.00;5069844;28;20045;-84
2023/01/18 05:38:30;;;;;;;0.70;0.70;;;;;;;-1.75;90.80;99097.56;5074590;28;20063;-85
2023/01/18 05:40:57;;;;;;;0.80;0.80;;;;;;;-1.72;90.84;99114.91;5089943;28;20051;-85
2023/01/18 05:43:26;;;;;;;0.90;0.90;;;;;;;-1.75;90.65;99116.94;5090157;28;20044;-83
2023/01/18 05:45:53;;;;;;;0.90;0.90;;;;;;;-1.79;90.66;99110.28;5090059;28;20055;-84
2023/01/18 05:48:20;;;;;;;0.80;0.80;;;;;;;-1.81;90.58;99114.91;5071486;28;20044;-84
2023/01/18 05:50:47;;;;;;;0.77;0.77;;;;;;;-1.81;90.79;99114.91;5089796;28;20055;-84
2023/01/18 05:53:20;;;;;;;0.90;0.90;;;;;;;-1.82;90.71;99105.34;5089822;28;20119;-84
2023/01/18 05:55:57;;;;;;;0.75;0.75;;;;;;;-1.78;90.63;99116.41;5092736;28;20142;-85
2023/01/18 05:58:26;;;;;;;0.90;0.90;;;;;;;-1.77;90.57;99104.84;5092803;28;20055;-84
2023/01/18 06:00:54;;;;;;;0.82;0.82;;;;;;;-1.83;90.89;99127.47;5093483;28;20134;-85
2023/01/18 06:03:22;;;;;;;1.00;1.00;;;;;;;-1.86;90.73;99114.56;5094010;28;20076;-84
2023/01/18 06:05:50;;;;;;;0.90;0.90;;;;;;;-1.87;90.91;99112.94;5093264;28;20516;-84
2023/01/18 06:08:18;;;;;;;1.00;1.00;;;;;;;-1.86;91.13;99113.75;5093772;28;20043;-84
2023/01/18 06:10:55;;;;;;;0.75;0.75;;;;;;;-1.83;91.13;99130.13;5093386;28;20468;-84
2023/01/18 06:13:26;;;;;;;0.90;0.90;;;;;;;-1.83;91.13;99131.94;5093411;28;20593;-83
2023/01/18 06:15:55;;;;;;;0.80;0.80;;;;;;;-1.83;91.29;99134.59;5092575;28;20044;-85
2023/01/18 06:18:23;;;;;;;0.88;0.88;;;;;;;-1.88;91.33;99127.13;5094071;28;20059;-84
2023/01/18 06:20:56;;;;;;;0.98;0.98;;;;;;;-1.84;91.40;99123.19;5093140;28;20054;-84
2023/01/18 06:23:27;;;;;;;1.00;1.00;;;;;;;-1.83;91.53;99129.28;5093438;28;20513;-84
2023/01/18 06:25:55;;;;;;;0.93;0.93;;;;;;;-1.83;91.49;99135.41;5092838;28;20138;-85
2023/01/18 06:28:23;;;;;;;0.80;0.80;;;;;;;-1.85;91.45;99148.00;5075083;28;20051;-84
2023/01/18 06:30:54;;;;;;;0.70;0.70;;;;;;;-1.84;91.31;99143.53;5092762;28;20143;-85
2023/01/18 06:33:22;;;;;;;0.77;0.77;;;;;;;-1.85;91.58;99137.41;5092148;28;20478;-85
2023/01/18 06:35:50;;;;;;;0.88;0.88;;;;;;;-1.86;91.44;99140.19;5071434;28;20769;-84
2023/01/18 06:38:17;;;;;;;1.00;1.00;;;;;;;-1.85;91.59;99132.13;5072619;28;20075;-84
2023/01/18 06:40:44;;;;;;;0.90;0.90;;;;;;;-1.79;91.46;99146.50;5072509;28;20048;-84
2023/01/18 06:43:12;;;;;;;0.80;0.80;;;;;;;-1.71;91.31;99148.34;5072904;28;20052;-83
2023/01/18 06:45:40;;;;;;;0.90;0.90;;;;;;;-1.70;90.84;99139.41;5072618;28;20135;-84
2023/01/18 06:48:07;;;;;;;0.90;0.90;;;;;;;-1.71;90.54;99153.63;5072374;28;20563;-85
2023/01/18 06:50:34;;;;;;;0.65;0.65;;;;;;;-1.73;90.40;99147.69;5072344;28;20067;-85
2023/01/18 06:53:01;;;;;;;0.80;0.80;;;;;;;-1.68;90.39;99134.78;5083926;28;20044;-85
2023/01/18 06:55:28;;;;;;;0.80;0.80;;;;;;;-1.70;90.32;99140.22;5093007;28;20052;-84
2023/01/18 06:57:55;;;;;;;0.90;0.90;;;;;;;-1.68;90.07;99140.06;5097162;28;20113;-86
2023/01/18 07:00:23;;;;;;;0.88;0.88;;;;;;;-1.65;89.91;99152.97;5099638;28;20050;-85
2023/01/18 07:02:51;;;;;;;0.80;0.80;;;;;;;-1.62;89.72;99148.22;5097167;28;20571;-82
2023/01/18 07:05:18;;;;;;;0.90;0.90;;;;;;;-1.59;89.55;99157.63;5074926;28;20384;-85
2023/01/18 07:07:45;;;;;;;0.90;0.90;;;;;;;-1.55;89.24;99158.94;5091709;28;20130;-83
2023/01/18 07:10:13;;;;;;;0.95;0.95;;;;;;;-1.52;89.28;99163.91;5092680;28;20048;-85
2023/01/18 07:12:47;;;;;;;0.80;0.80;;;;;;;-1.53;88.91;99163.09;5090449;28;20043;-84
2023/01/18 07:15:16;;;;;;;1.00;1.00;;;;;;;-1.57;88.77;99142.41;5092315;28;20571;-85
2023/01/18 07:17:49;;;;;;;0.70;0.70;;;;;;;-1.47;88.84;99166.91;5092013;28;20510;-83
2023/01/18 07:20:17;;;;;;;0.93;0.93;;;;;;;-1.49;88.58;99158.31;5092161;28;20043;-85
2023/01/18 07:22:44;;;;;;;0.98;0.98;;;;;;;-1.43;88.73;99184.13;5092120;28;20073;-85
2023/01/18 07:25:12;;;;;;;0.90;0.90;;;;;;;-1.43;88.61;99180.66;5092450;28;20506;-85
2023/01/18 07:27:42;;;;;;;0.80;0.80;;;;;;;-1.43;88.51;99184.13;5092739;28;20056;-84
2023/01/18 07:30:11;;;;;;;0.90;0.90;;;;;;;-1.38;88.37;99176.50;5092284;28;20105;-85
2023/01/18 07:32:38;;;;;;;0.90;0.90;;;;;;;-1.37;88.33;99186.13;5092447;28;20055;-85
2023/01/18 07:35:06;;;;;;;0.90;0.90;;;;;;;-1.37;88.67;99188.78;5083901;28;20049;-84
2023/01/18 07:37:33;;;;;;;0.90;0.90;;;;;;;-1.33;88.90;99190.09;5087467;28;20040;-85
2023/01/18 07:40:00;;;;;;;0.90;0.90;;;;;;;-1.31;88.90;99180.16;5072057;28;20055;-83
2023/01/18 07:42:29;;;;;;;0.77;0.77;;;;;;;-1.31;88.89;99169.59;5071690;28;20523;-84
2023/01/18 07:44:56;;;;;;;0.90;0.90;;;;;;;-1.33;88.72;99184.78;5071805;28;20052;-83
2023/01/18 07:47:23;;;;;;;0.90;0.90;;;;;;;-1.33;88.73;99179.50;5072048;28;20044;-84
2023/01/18 07:49:50;;;;;;;0.85;0.85;;;;;;;-1.33;88.81;99174.22;5070089;28;20139;-84
2023/01/18 07:52:17;;;;;;;0.80;0.80;;;;;;;-1.26;88.93;99176.22;5076503;28;20044;-85
2023/01/18 07:54:44;;;;;;;0.90;0.90;;;;;;;-1.25;88.72;99172.56;5091665;28;20055;-84
2023/01/18 07:57:11;;;;;;;1.00;1.00;;;;;;;-1.23;88.54;99167.94;5091657;28;20105;-85
2023/01/18 07:59:38;;;;;;;0.90;0.90;;;;;;;-1.23;88.61;99163.47;5091164;28;20076;-85
2023/01/18 08:02:07;;;;;;;0.80;0.80;;;;;;;-1.19;88.60;99156.00;5091740;28;20417;-85
2023/01/18 08:04:34;;;;;;;0.90;0.90;;;;;;;-1.18;88.55;99160.31;5091310;28;20143;-84
2023/01/18 08:07:01;;;;;;;0.90;0.90;;;;;;;-1.25;88.40;99164.63;5091422;28;20053;-85
2023/01/18 08:09:28;;;;;;;0.90;0.90;;;;;;;-1.19;88.56;99164.81;5091334;28;20071;-84
2023/01/18 08:11:55;;;;;;;0.90;0.90;;;;;;;-1.15;88.28;99160.00;5090179;28;20048;-83
2023/01/18 08:14:22;;;;;;;1.00;1.00;;;;;;;-1.17;88.21;99176.03;5090770;28;20048;-84
2023/01/18 08:16:49;;;;;;;0.85;0.85;;;;;;;-1.20;88.36;99173.72;5090170;28;20143;-85
2023/01/18 08:19:16;;;;;;;0.90;0.90;;;;;;;-1.10;88.40;99179.69;5073272;28;20143;-86
2023/01/18 08:21:46;;;;;;;0.90;0.90;;;;;;;-1.13;88.38;99168.59;5091264;28;20106;-84
2023/01/18 08:24:15;;;;;;;0.80;0.80;;;;;;;-1.13;88.12;99168.59;5090712;28;20048;-86
2023/01/18 08:26:42;;;;;;;0.93;0.93;;;;;;;-1.08;88.20;99181.34;5089079;28;20502;-84
2023/01/18 08:29:09;;;;;;;1.00;1.00;;;;;;;-1.06;88.20;99190.78;5069474;28;20076;-84
2023/01/18 08:31:36;;;;;;;0.90;0.90;;;;;;;-1.01;88.41;99193.78;5071811;28;20121;-84
2023/01/18 08:34:04;;;;;;;0.90;0.90;;;;;;;-1.00;88.20;99179.53;5073794;28;20139;-84
2023/01/18 08:36:31;;;;;;;1.00;1.00;;;;;;;-1.07;88.08;99178.53;5091505;28;20080;-84
2023/01/18 08:38:59;;;;;;;1.00;1.00;;;;;;;-0.99;88.10;99188.28;5109177;28;20513;-83
2023/01/18 08:41:28;;;;;;;0.90;0.90;;;;;;;-0.96;87.86;99187.94;5092101;28;20082;-85
2023/01/18 08:43:56;;;;;;;1.00;1.00;;;;;;;-0.94;87.72;99165.63;5090052;28;20078;-85
2023/01/18 08:46:23;;;;;;;0.90;0.90;;;;;;;-1.00;87.36;99162.81;5090124;28;20052;-85
2023/01/18 08:48:52;;;;;;;1.00;1.00;;;;;;;-1.04;87.48;99172.88;5089726;28;20052;-85
2023/01/18 08:51:21;;;;;;;0.90;0.90;;;;;;;-0.97;87.08;99178.34;5090735;28;20044;-85
2023/01/18 08:53:50;;;;;;;1.00;1.00;;;;;;;-0.97;87.04;99183.66;5070850;28;20064;-85
2023/01/18 08:56:19;;;;;;;0.90;0.90;;;;;;;-0.96;87.53;99178.22;5070746;28;20079;-84
2023/01/18 08:58:46;;;;;;;0.90;0.90;;;;;;;-0.95;87.08;99165.78;5085279;28;20138;-85
2023/01/18 09:01:13;;;;;;;0.77;0.77;;;;;;;-0.88;87.19;99175.53;5070776;28;20564;-84
2023/01/18 09:03:41;;;;;;;0.95;0.95;;;;;;;-0.85;86.98;99181.50;5070780;28;20049;-84
2023/01/18 09:06:08;;;;;;;1.00;1.00;;;;;;;-0.83;87.09;99182.19;5069021;28;20075;-84
2023/01/18 09:08:38;;;;;;;0.90;0.90;;;;;;;-0.87;87.13;99189.63;5069858;28;20040;-85
2023/01/18 09:11:08;;;;;;;0.90;0.90;;;;;;;-0.86;86.85;99191.28;5070026;28;20055;-85
2023/01/18 09:13:37;;;;;;;1.00;1.00;;;;;;;-0.93;87.12;99183.16;5052347;28;20044;-85
2023/01/18 09:16:24;;;;;;;0.80;0.80;;;;;;;-0.90;87.48;99195.25;5070836;28;20071;-85
2023/01/18 09:18:52;;;;;;;0.90;0.90;;;;;;;-0.87;87.50;99206.34;5071074;28;20079;-85
2023/01/18 09:21:19;;;;;;;0.90;0.90;;;;;;;-0.85;87.67;99211.47;5070469;28;20052;-85
2023/01/18 09:23:47;;;;;;;0.90;0.90;;;;;;;-0.85;87.56;99211.47;5068871;28;20068;-85
2023/01/18 09:26:15;;;;;;;1.00;1.00;;;;;;;-0.82;87.53;99202.38;5086294;28;20052;-84
2023/01/18 09:28:43;;;;;;;0.85;0.85;;;;;;;-0.80;87.75;99201.22;5071316;28;20663;-85
2023/01/18 09:31:11;;;;;;;0.90;0.90;;;;;;;-0.79;87.79;99199.38;5081713;28;20082;-84
2023/01/18 09:33:39;;;;;;;0.80;0.80;;;;;;;-0.73;87.84;99198.72;5089215;28;20079;-83
2023/01/18 09:36:11;;;;;;;1.00;1.00;;;;;;;-0.72;87.82;99200.38;5085376;28;20047;-84
2023/01/18 09:38:39;;;;;;;1.00;1.00;;;;;;;-0.71;88.03;99202.03;5084359;28;20044;-85
2023/01/18 09:41:30;;;;;;;0.95;0.95;;;;;;;-0.64;88.04;99197.72;5075990;28;20052;-87
2023/01/18 09:44:11;;;;;;;0.93;0.93;;;;;;;-0.70;87.88;99204.50;5078436;28;20052;-90
2023/01/18 09:46:40;;;;;;;1.00;1.00;;;;;;;-0.73;87.82;99210.16;5078303;28;20048;-84
2023/01/18 09:49:17;;;;;;;1.00;1.00;;;;;;;-0.70;88.23;99203.69;5078420;28;20045;-85
2023/01/18 09:52:03;;;;;;;1.00;1.00;;;;;;;-0.63;88.26;99212.63;5084248;28;20041;-85
2023/01/18 09:54:51;;;;;;;1.00;1.00;;;;;;;-0.63;88.04;99209.13;5084278;28;20054;-85
2023/01/18 09:57:36;;;;;;;1.00;1.00;;;;;;;-0.63;87.97;99207.34;5092551;28;20143;-85
2023/01/18 10:00:15;;;;;;;0.90;0.90;;;;;;;-0.69;88.00;99215.94;5079963;28;20055;-84
2023/01/18 10:02:43;;;;;;;1.00;1.00;;;;;;;-0.75;87.96;99206.03;5079303;28;20563;-86
2023/01/18 10:05:14;;;;;;;0.90;0.90;;;;;;;-0.74;88.47;99205.84;5069002;28;20053;-86
2023/01/18 10:08:03;;;;;;;0.98;0.98;;;;;;;-0.76;88.72;99196.38;5078450;28;20454;-85
2023/01/18 10:10:37;;;;;;;0.90;0.90;;;;;;;-0.70;88.62;99203.69;5060741;28;20850;-85
2023/01/18 10:13:23;;;;;;;0.90;0.90;;;;;;;-0.76;88.54;99217.59;5085084;28;20047;-85
2023/01/18 10:15:53;;;;;;;0.90;0.90;;;;;;;-0.78;88.80;99193.09;5075265;28;20049;-83
2023/01/18 10:18:20;;;;;;;0.80;0.80;;;;;;;-0.72;88.91;99193.25;5082503;28;20483;-83
2023/01/18 10:20:57;;;;;;;0.82;0.82;;;;;;;-0.73;88.96;99193.44;5078858;28;20518;-83
2023/01/18 10:23:35;;;;;;;1.00;1.00;;;;;;;-0.75;89.10;99198.06;5082399;28;20066;-82
2023/01/18 10:26:07;;;;;;;0.90;0.90;;;;;;;-0.75;89.17;99203.38;5082759;28;20072;-84
2023/01/18 10:29:05;;;;;;;0.98;0.98;;;;;;;-0.73;89.55;99207.50;5084614;28;20098;-83
2023/01/18 10:31:56;;;;;;;1.00;1.00;;;;;;;-0.69;89.59;99195.56;5079557;28;20044;-83
2023/01/18 10:34:28;;;;;;;0.80;0.80;;;;;;;-0.62;89.58;99197.56;5083503;28;20411;-84
2023/01/18 10:37:27;;;;;;;0.90;0.90;;;;;;;-0.68;89.39;99188.47;5072685;28;20055;-83
2023/01/18 10:39:57;;;;;;;0.90;0.90;;;;;;;-0.71;89.33;99186.13;5086424;28;20583;-85
2023/01/18 10:42:28;;;;;;;1.00;1.00;;;;;;;-0.72;89.47;99197.72;5084400;28;20056;-85
2023/01/18 10:44:56;;;;;;;0.90;0.90;;;;;;;-0.75;89.75;99200.72;5080193;28;20502;-84
2023/01/18 10:47:23;;;;;;;0.90;0.90;;;;;;;-0.73;90.02;99198.72;5086711;28;20139;-82
2023/01/18 10:49:56;;;;;;;0.93;0.93;;;;;;;-0.76;90.15;99193.75;5091730;28;20091;-83
2023/01/18 10:52:29;;;;;;;1.00;1.00;;;;;;;-0.75;90.16;99193.59;5080037;28;20048;-84
2023/01/18 10:54:58;;;;;;;1.00;1.00;;;;;;;-0.76;90.20;99202.53;5080896;28;20091;-84
2023/01/18 10:57:29;;;;;;;1.00;1.00;;;;;;;-0.77;90.40;99198.22;5072944;28;20407;-84
2023/01/18 10:59:56;;;;;;;0.90;0.90;;;;;;;-0.72;90.48;99213.63;5097438;28;20044;-83
2023/01/18 11:02:28;;;;;;;0.80;0.80;;;;;;;-0.70;90.65;99211.66;5089166;28;20093;-85
2023/01/18 11:05:01;;;;;;;0.90;0.90;;;;;;;-0.67;90.76;99206.00;5079882;28;20045;-83
2023/01/18 11:07:29;;;;;;;0.90;0.90;;;;;;;-0.65;90.95;99206.66;5085229;28;20056;-82
2023/01/18 11:10:00;;;;;;;0.88;0.88;;;;;;;-0.61;90.80;99197.38;5083075;28;20593;-82
2023/01/18 11:12:50;;;;;;;0.88;0.88;;;;;;;-0.63;90.74;99194.09;5090948;28;20048;-83
2023/01/18 11:15:17;;;;;;;0.88;0.88;;;;;;;-0.61;91.07;99191.25;5082787;28;20134;-84
2023/01/18 11:17:55;;;;;;;0.90;0.90;;;;;;;-0.67;91.26;99193.56;5090326;28;20130;-83
2023/01/18 11:20:43;;;;;;;0.98;0.98;;;;;;;-0.71;91.53;99199.38;5092821;28;20063;-83
2023/01/18 11:23:17;;;;;;;0.90;0.90;;;;;;;-0.77;91.94;99187.63;5076081;28;20132;-82
2023/01/18 11:26:03;;;;;;;0.98;0.98;;;;;;;-0.76;92.19;99180.50;5078300;28;20166;-82
2023/01/18 11:28:56;;;;;;;0.90;0.90;;;;;;;-0.74;92.29;99189.94;5057919;28;20067;-83
2023/01/18 11:31:29;;;;;;;1.00;1.00;;;;;;;-0.72;92.65;99189.78;5058027;28;20133;-85
2023/01/18 11:33:59;;;;;;;0.80;0.80;;;;;;;-0.74;92.49;99181.97;5106815;28;20101;-82
2023/01/18 11:36:35;;;;;;;0.80;0.80;;;;;;;-0.66;92.91;99174.03;5056463;28;20040;-83
2023/01/18 11:39:25;;;;;;;0.73;0.73;;;;;;;-0.73;92.51;99175.69;5098865;28;20056;-84
2023/01/18 11:42:10;;;;;;;0.80;0.80;;;;;;;-0.74;92.77;99187.28;5077787;28;20113;-84
2023/01/18 11:45:03;;;;;;;0.90;0.90;;;;;;;-0.73;92.68;99177.53;5092187;28;20075;-82
2023/01/18 11:48:00;;;;;;;0.80;0.80;;;;;;;-0.69;92.93;99165.56;5094372;28;20048;-85
2023/01/18 11:50:43;;;;;;;1.00;1.00;;;;;;;-0.64;92.76;99171.19;5081737;28;20047;-83
2023/01/18 11:53:35;;;;;;;0.90;0.90;;;;;;;-0.64;92.60;99163.25;5074220;28;20049;-85
2023/01/18 11:56:06;;;;;;;0.90;0.90;;;;;;;-0.77;92.36;99144.41;5070847;28;20069;-83
2023/01/18 11:58:34;;;;;;;0.90;0.90;;;;;;;-0.69;92.43;99170.88;5069783;28;20235;-82
2023/01/18 12:01:20;;;;;;;0.80;0.80;;;;;;;-0.59;92.16;99170.69;5074945;28;20121;-83
2023/01/18 12:04:10;;;;;;;0.90;0.90;;;;;;;-0.58;91.85;99173.19;5084385;28;20040;-81
2023/01/18 12:06:53;;;;;;;0.90;0.90;;;;;;;-0.70;91.67;99156.81;5080405;28;20114;-83
2023/01/18 12:09:23;;;;;;;0.90;0.90;;;;;;;-0.56;91.69;99171.19;5086550;28;20462;-83
2023/01/18 12:12:19;;;;;;;0.80;0.80;;;;;;;-0.57;91.40;99174.84;5071879;28;20482;-83
2023/01/18 12:15:02;;;;;;;0.90;0.90;;;;;;;-0.54;90.95;99171.03;5103095;28;20422;-84
2023/01/18 12:17:55;;;;;;;0.80;0.80;;;;;;;-0.56;90.42;99171.19;5089706;28;20052;-84
2023/01/18 12:20:54;;;;;;;0.90;0.90;;;;;;;-0.59;89.63;99179.47;5069309;28;20045;-83
2023/01/18 12:23:21;;;;;;;0.75;0.75;;;;;;;-0.63;89.28;99206.47;5081548;28;20063;-84
2023/01/18 12:26:27;;;;;;;0.90;0.90;;;;;;;-0.68;89.02;99189.28;4736497;28;10001497;-83